ENBN/BNN METAR and TAF weather

Enter ICAO airport designator
Station Type Date Time Source
ENBN METAR 2018/01/22 19:50 UTC NOAA

ENBN 221950Z AUTO VRB03KT 9999NDV NCD M02/M10 Q1009


Station Type Date Time Source
ENBN Decoded METAR 2018/01/22 19:50 UTC NOAA

Bronnoysund / Bronnoy, Norway (ENBN) 65-28N 012-13E 9M
Jan 22, 2018 - 02:50 PM EST / 2018.01.22 1950 UTC
Wind: Variable at 3 MPH (3 KT):0
Temperature: 28 F (-2 C)
Dew Point: 14 F (-10 C)
Relative Humidity: 54%
Pressure (altimeter): 29.80 in. Hg (1009 hPa)
ob: ENBN 221950Z AUTO VRB03KT 9999NDV NCD M02/M10 Q1009
cycle: 20

Station Type Date Time Source
ENBN TAF 2011/03/27 18:12 UTC NOAA

TAF TAF ENBN 261700Z 2618/2718 CNL


Example: see airport list